createdAt,value
2022-11-21T00:01:00.167Z,16.14
2022-11-21T00:03:27.316Z,16.01
2022-11-21T00:05:54.100Z,15.67
2022-11-21T00:08:22.302Z,15.56
2022-11-21T00:10:49.355Z,15.93
2022-11-21T00:13:20.890Z,15.99
2022-11-21T00:15:48.344Z,15.50
2022-11-21T00:18:15.929Z,15.09
2022-11-21T00:20:43.565Z,15.44
2022-11-21T00:23:11.238Z,15.19
2022-11-21T00:25:38.960Z,15.48
2022-11-21T00:28:06.864Z,15.79
2022-11-21T00:30:33.749Z,15.89
2022-11-21T00:33:00.753Z,15.92
2022-11-21T00:35:27.725Z,15.97
2022-11-21T00:37:54.613Z,16.16
2022-11-21T00:40:21.586Z,15.86
2022-11-21T00:42:48.289Z,15.79
2022-11-21T00:45:18.363Z,16.00
2022-11-21T00:47:48.168Z,15.83
2022-11-21T00:50:14.994Z,15.88
2022-11-21T00:52:41.826Z,16.02
2022-11-21T00:55:08.963Z,16.36
2022-11-21T00:57:35.767Z,16.27
2022-11-21T01:00:02.663Z,16.19
2022-11-21T01:02:29.355Z,16.15
2022-11-21T01:04:56.165Z,16.35
2022-11-21T01:07:22.906Z,16.48
2022-11-21T01:09:49.820Z,16.23
2022-11-21T01:12:16.506Z,16.21
2022-11-21T01:14:43.410Z,15.91
2022-11-21T01:17:10.195Z,15.94
2022-11-21T01:19:37.180Z,16.07
2022-11-21T01:22:03.888Z,16.15
2022-11-21T01:24:30.723Z,16.34
2022-11-21T01:26:57.646Z,15.04
2022-11-21T01:29:24.549Z,15.69
2022-11-21T01:31:51.354Z,15.69
2022-11-21T01:34:18.636Z,16.10
2022-11-21T01:36:45.571Z,15.00
2022-11-21T01:39:13.024Z,15.65
2022-11-21T01:41:42.541Z,15.59
2022-11-21T01:44:22.299Z,15.82
2022-11-21T01:46:51.122Z,15.73
2022-11-21T01:49:21.654Z,15.68
2022-11-21T01:51:54.431Z,15.87
2022-11-21T01:54:31.676Z,15.41
2022-11-21T01:57:04.417Z,15.12
2022-11-21T01:59:36.203Z,15.56
2022-11-21T02:02:05.064Z,16.05
2022-11-21T02:04:33.876Z,15.89
2022-11-21T02:07:06.322Z,15.19
2022-11-21T02:09:37.402Z,14.74
2022-11-21T02:12:13.600Z,15.56
2022-11-21T02:14:43.916Z,15.54
2022-11-21T02:17:11.154Z,15.60
2022-11-21T02:19:55.508Z,15.71
2022-11-21T02:22:45.540Z,15.89
2022-11-21T02:25:19.453Z,16.32
2022-11-21T02:27:49.261Z,16.35
2022-11-21T02:30:17.667Z,16.28
2022-11-21T02:32:47.221Z,15.25
2022-11-21T02:35:18.584Z,15.41
2022-11-21T02:37:57.593Z,16.15
2022-11-21T02:40:29.191Z,15.93
2022-11-21T02:43:08.870Z,16.35
2022-11-21T02:45:41.827Z,16.34
2022-11-21T02:48:09.075Z,16.16
2022-11-21T02:50:38.826Z,16.13
2022-11-21T02:53:07.432Z,16.20
2022-11-21T02:55:34.221Z,16.19
2022-11-21T02:58:04.811Z,15.89
2022-11-21T03:00:33.870Z,16.06
2022-11-21T03:03:00.841Z,15.64
2022-11-21T03:05:27.899Z,15.73
2022-11-21T03:07:54.717Z,15.82
2022-11-21T03:10:21.640Z,15.60
2022-11-21T03:12:48.431Z,15.08
2022-11-21T03:15:15.954Z,14.92
2022-11-21T03:17:43.347Z,15.69
2022-11-21T03:20:10.958Z,15.92
2022-11-21T03:22:37.886Z,15.57
2022-11-21T03:25:05.026Z,14.92
2022-11-21T03:27:31.670Z,15.53
2022-11-21T03:29:58.740Z,15.56
2022-11-21T03:32:25.480Z,15.88
2022-11-21T03:34:52.218Z,16.03
2022-11-21T03:37:19.388Z,15.74
2022-11-21T03:39:46.101Z,15.93
2022-11-21T03:42:13.165Z,16.44
2022-11-21T03:44:39.954Z,16.60
2022-11-21T03:47:06.898Z,16.47
2022-11-21T03:49:33.561Z,16.32
2022-11-21T03:52:00.371Z,16.31
2022-11-21T03:54:27.369Z,15.77
2022-11-21T03:56:54.490Z,15.42
2022-11-21T03:59:22.196Z,16.15
2022-11-21T04:01:49.178Z,16.15
2022-11-21T04:04:16.006Z,16.32
2022-11-21T04:06:42.966Z,16.42
2022-11-21T04:09:10.629Z,16.50
2022-11-21T04:11:37.814Z,16.12
2022-11-21T04:14:04.639Z,16.34
2022-11-21T04:16:31.619Z,16.35
2022-11-21T04:18:58.363Z,16.47
2022-11-21T04:21:25.422Z,16.46
2022-11-21T04:23:52.348Z,16.30
2022-11-21T04:26:19.157Z,16.37
2022-11-21T04:28:46.116Z,16.50
2022-11-21T04:31:13.349Z,16.63
2022-11-21T04:33:40.431Z,16.52
2022-11-21T04:36:08.942Z,16.49
2022-11-21T04:38:36.479Z,15.97
2022-11-21T04:41:03.486Z,16.61
2022-11-21T04:43:30.325Z,15.90
2022-11-21T04:45:57.023Z,15.62
2022-11-21T04:48:24.720Z,16.10
2022-11-21T04:50:51.482Z,15.68
2022-11-21T04:53:18.359Z,14.94
2022-11-21T04:55:45.041Z,15.07
2022-11-21T04:58:12.041Z,14.37
2022-11-21T05:00:39.799Z,14.43
2022-11-21T05:03:07.048Z,14.84
2022-11-21T05:05:33.910Z,15.07
2022-11-21T05:08:00.923Z,15.04
2022-11-21T05:10:27.884Z,14.94
2022-11-21T05:13:17.691Z,14.65
2022-11-21T05:15:45.030Z,14.73
2022-11-21T05:18:11.801Z,15.17
2022-11-21T05:20:38.799Z,14.96
2022-11-21T05:23:05.557Z,15.04
2022-11-21T05:25:32.284Z,14.95
2022-11-21T05:27:59.305Z,14.52
2022-11-21T05:30:26.175Z,14.64
2022-11-21T05:32:53.196Z,14.97
2022-11-21T05:35:20.082Z,14.88
2022-11-21T05:37:46.944Z,15.04
2022-11-21T05:40:13.730Z,15.05
2022-11-21T05:43:01.537Z,15.06
2022-11-21T05:45:28.398Z,15.29
2022-11-21T05:47:55.165Z,14.58
2022-11-21T05:50:22.042Z,14.02
2022-11-21T05:52:49.018Z,14.56
2022-11-21T05:55:15.853Z,14.38
2022-11-21T05:57:42.770Z,14.44
2022-11-21T06:00:09.880Z,13.86
2022-11-21T06:02:55.375Z,13.80
2022-11-21T06:05:22.376Z,13.82
2022-11-21T06:07:49.425Z,14.10
2022-11-21T06:10:16.856Z,13.81
2022-11-21T06:12:43.556Z,13.76
2022-11-21T06:15:10.879Z,13.94
2022-11-21T06:17:37.612Z,13.97
2022-11-21T06:20:04.673Z,13.99
2022-11-21T06:22:31.589Z,13.89
2022-11-21T06:24:58.393Z,13.54
2022-11-21T06:27:25.349Z,12.95
2022-11-21T06:29:52.057Z,12.82
2022-11-21T06:32:18.968Z,12.83
2022-11-21T06:34:45.743Z,13.08
2022-11-21T06:37:12.719Z,12.87
2022-11-21T06:39:39.449Z,12.75
2022-11-21T06:42:06.323Z,12.39
2022-11-21T06:44:33.070Z,12.27
2022-11-21T06:47:00.068Z,12.60
2022-11-21T06:49:26.783Z,12.34
2022-11-21T06:51:54.735Z,11.52
2022-11-21T06:54:21.652Z,11.62
2022-11-21T06:56:51.844Z,11.16
2022-11-21T06:59:18.585Z,11.35
2022-11-21T07:01:45.491Z,11.51
2022-11-21T07:04:12.652Z,10.92
2022-11-21T07:06:39.560Z,10.58
2022-11-21T07:11:53.466Z,11.06
2022-11-21T07:14:20.333Z,10.98
2022-11-21T07:16:47.031Z,10.62
2022-11-21T07:19:14.055Z,10.70
2022-11-21T07:21:43.112Z,10.62
2022-11-21T07:24:09.846Z,10.32
2022-11-21T07:26:37.805Z,10.60
2022-11-21T07:29:04.453Z,10.43
2022-11-21T07:31:31.315Z,10.47
2022-11-21T07:33:58.079Z,10.73
2022-11-21T07:36:24.944Z,10.37
2022-11-21T07:38:52.672Z,10.37
2022-11-21T07:41:19.440Z,10.13
2022-11-21T07:43:46.158Z,10.34
2022-11-21T07:46:12.828Z,10.11
2022-11-21T07:48:39.552Z,10.32
2022-11-21T07:51:06.278Z,10.64
2022-11-21T07:53:33.211Z,10.47
2022-11-21T07:56:00.501Z,10.73
2022-11-21T07:58:27.332Z,10.45
2022-11-21T08:00:54.292Z,10.51
2022-11-21T08:03:21.025Z,10.52
2022-11-21T08:05:48.642Z,10.25
2022-11-21T08:08:15.525Z,10.57
2022-11-21T08:10:45.253Z,10.37
2022-11-21T08:13:13.178Z,10.48
2022-11-21T08:15:40.402Z,10.60
2022-11-21T08:18:11.866Z,10.85
2022-11-21T08:20:38.963Z,10.40
2022-11-21T08:23:06.753Z,10.28
2022-11-21T08:25:41.018Z,10.58
2022-11-21T08:28:09.583Z,10.41
2022-11-21T08:30:37.623Z,9.95
2022-11-21T08:33:05.091Z,10.22
2022-11-21T08:35:31.872Z,9.74
2022-11-21T08:38:00.662Z,9.87
2022-11-21T08:40:29.602Z,10.23
2022-11-21T08:43:00.491Z,10.16
2022-11-21T08:45:27.611Z,10.02
2022-11-21T08:47:55.167Z,10.25
2022-11-21T08:50:23.247Z,10.43
2022-11-21T08:52:50.127Z,10.35
2022-11-21T08:55:17.123Z,10.42
2022-11-21T08:57:44.005Z,10.42
2022-11-21T09:00:12.727Z,10.44
2022-11-21T09:02:39.568Z,10.05
2022-11-21T09:05:07.121Z,10.14
2022-11-21T09:07:34.039Z,10.72
2022-11-21T09:10:00.898Z,10.56
2022-11-21T09:12:28.693Z,10.79
2022-11-21T09:15:14.195Z,10.71
2022-11-21T09:17:59.509Z,10.32
2022-11-21T09:20:26.395Z,10.45
2022-11-21T09:22:53.278Z,10.75
2022-11-21T09:25:20.283Z,10.30
2022-11-21T09:27:47.156Z,10.29
2022-11-21T09:30:14.684Z,10.22
2022-11-21T09:32:41.495Z,10.43
2022-11-21T09:35:09.204Z,10.47
2022-11-21T09:37:40.434Z,10.24
2022-11-21T09:40:10.673Z,10.32
2022-11-21T09:42:55.994Z,10.56
2022-11-21T09:45:29.676Z,10.69
2022-11-21T09:47:56.839Z,10.50
2022-11-21T09:50:30.659Z,10.71
2022-11-21T09:53:21.138Z,10.58
2022-11-21T09:56:12.550Z,10.86
2022-11-21T09:58:50.534Z,10.85
2022-11-21T10:01:18.072Z,10.80
2022-11-21T10:03:50.822Z,10.65
2022-11-21T10:06:36.529Z,10.93
2022-11-21T10:09:31.167Z,10.74
2022-11-21T10:12:30.449Z,10.66
2022-11-21T10:15:06.875Z,10.82
2022-11-21T10:17:36.581Z,10.45
2022-11-21T10:20:10.987Z,10.38
2022-11-21T10:22:44.622Z,10.04
2022-11-21T10:25:27.113Z,10.30
2022-11-21T10:27:56.803Z,10.20
2022-11-21T10:30:23.735Z,10.43
2022-11-21T10:32:57.215Z,10.59
2022-11-21T10:35:25.861Z,10.34
2022-11-21T10:38:01.518Z,10.63
2022-11-21T10:40:41.132Z,10.50
2022-11-21T10:43:45.814Z,9.99
2022-11-21T10:46:12.681Z,10.30
2022-11-21T10:48:39.459Z,9.93
2022-11-21T10:51:29.034Z,9.97
2022-11-21T10:54:29.727Z,10.05
2022-11-21T10:57:07.793Z,10.12
2022-11-21T10:59:34.742Z,10.03
2022-11-21T11:02:13.712Z,10.36
2022-11-21T11:04:47.293Z,10.14
2022-11-21T11:07:24.325Z,10.47
2022-11-21T11:09:52.697Z,10.45
2022-11-21T11:12:51.297Z,10.40
2022-11-21T11:15:20.708Z,10.29
2022-11-21T11:18:05.598Z,10.36
2022-11-21T11:20:41.366Z,10.20
2022-11-21T11:23:24.305Z,10.54
2022-11-21T11:25:57.669Z,10.54
2022-11-21T11:28:26.465Z,10.54
2022-11-21T11:30:56.052Z,10.75
2022-11-21T11:33:35.986Z,10.86
2022-11-21T11:36:15.194Z,10.84
2022-11-21T11:38:57.470Z,11.09
2022-11-21T11:42:16.355Z,10.78
2022-11-21T11:45:18.450Z,10.88
2022-11-21T11:47:55.950Z,11.53
2022-11-21T11:50:31.566Z,12.04
2022-11-21T11:53:07.608Z,12.82
2022-11-21T11:55:37.051Z,13.30
2022-11-21T11:58:11.569Z,12.57
2022-11-21T12:01:17.193Z,11.92
2022-11-21T12:04:13.223Z,12.28
2022-11-21T12:07:54.064Z,13.42
2022-11-21T12:09:39.800Z,12.84
2022-11-21T12:12:16.996Z,12.40
2022-11-21T12:15:21.102Z,13.26
2022-11-21T12:18:15.575Z,12.82
2022-11-21T12:20:54.997Z,13.05
2022-11-21T12:23:25.137Z,12.57
2022-11-21T12:26:03.777Z,12.51
2022-11-21T12:28:49.461Z,12.67
2022-11-21T12:32:04.352Z,13.10
2022-11-21T12:34:49.186Z,13.02
2022-11-21T12:37:47.437Z,12.82
2022-11-21T12:40:20.285Z,12.45
2022-11-21T12:42:56.898Z,12.27
2022-11-21T12:45:32.400Z,11.62
2022-11-21T12:48:41.393Z,11.24
2022-11-21T12:51:39.094Z,10.71
2022-11-21T12:54:33.241Z,10.58
2022-11-21T12:57:17.717Z,11.00
2022-11-21T13:00:04.052Z,11.33
2022-11-21T13:02:52.433Z,11.88
2022-11-21T13:05:27.539Z,12.21
2022-11-21T13:08:03.777Z,11.87
2022-11-21T13:10:32.561Z,11.96
2022-11-21T13:13:03.158Z,11.19
2022-11-21T13:15:50.842Z,11.34
2022-11-21T13:18:24.365Z,11.01
2022-11-21T13:20:52.516Z,10.34
2022-11-21T13:23:42.526Z,10.08
2022-11-21T13:26:24.714Z,10.01
2022-11-21T13:29:08.617Z,10.20
2022-11-21T13:31:35.900Z,9.86
2022-11-21T13:34:04.347Z,10.25
2022-11-21T13:36:33.966Z,10.12
2022-11-21T13:39:00.807Z,10.36
2022-11-21T13:41:55.634Z,10.48
2022-11-21T13:44:34.684Z,9.77
2022-11-21T13:47:13.424Z,9.80
2022-11-21T13:49:43.299Z,10.05
2022-11-21T13:52:19.222Z,10.02
2022-11-21T13:54:54.986Z,10.01
2022-11-21T13:57:34.543Z,9.56
2022-11-21T14:00:38.838Z,9.70
2022-11-21T14:03:37.456Z,9.59
2022-11-21T14:06:20.993Z,9.30
2022-11-21T14:09:14.817Z,9.62
2022-11-21T14:11:55.991Z,9.94
2022-11-21T14:14:29.425Z,9.76
2022-11-21T14:17:08.863Z,9.81
2022-11-21T14:19:36.483Z,10.02
2022-11-21T14:22:03.273Z,10.19
2022-11-21T14:24:30.309Z,9.79
2022-11-21T14:26:58.137Z,10.01
2022-11-21T14:29:38.846Z,10.00
2022-11-21T14:32:06.331Z,9.89
2022-11-21T14:34:33.370Z,9.73
2022-11-21T14:37:04.223Z,9.88
2022-11-21T14:39:43.501Z,9.62
2022-11-21T14:42:16.403Z,9.80
2022-11-21T14:44:44.202Z,9.51
2022-11-21T14:47:25.088Z,9.51
2022-11-21T14:49:55.494Z,9.39
2022-11-21T14:52:29.244Z,9.70
2022-11-21T14:57:48.372Z,9.49
2022-11-21T15:03:21.758Z,10.04
2022-11-21T15:06:07.381Z,10.01
2022-11-21T15:11:28.868Z,9.66
2022-11-21T15:14:18.015Z,9.63
2022-11-21T15:16:51.373Z,9.71
2022-11-21T15:19:23.997Z,9.35
2022-11-21T15:21:56.581Z,9.95
2022-11-21T15:24:37.746Z,9.80
2022-11-21T15:27:27.020Z,9.40
2022-11-21T15:30:14.771Z,9.77
2022-11-21T15:33:01.360Z,9.57
2022-11-21T15:35:48.472Z,9.83
2022-11-21T15:38:26.880Z,9.59
2022-11-21T15:40:59.260Z,9.31
2022-11-21T15:46:42.217Z,9.61
2022-11-21T15:49:32.309Z,9.50
2022-11-21T15:52:09.590Z,9.40
2022-11-21T15:54:36.867Z,9.32
2022-11-21T15:57:04.010Z,9.13
2022-11-21T15:57:13.829Z,9.41
2022-11-21T15:59:31.299Z,9.37
2022-11-21T16:01:58.682Z,9.38
2022-11-21T16:04:26.301Z,9.42
2022-11-21T16:06:54.742Z,9.40
2022-11-21T16:09:21.469Z,9.50
2022-11-21T16:11:48.425Z,9.28
2022-11-21T16:14:18.345Z,9.14
2022-11-21T16:16:47.093Z,9.14
2022-11-21T16:19:15.568Z,9.24
2022-11-21T16:21:42.744Z,9.60
2022-11-21T16:24:09.662Z,9.38
2022-11-21T16:26:36.425Z,9.43
2022-11-21T16:29:05.413Z,9.28
2022-11-21T16:31:33.185Z,9.32
2022-11-21T16:34:00.919Z,9.26
2022-11-21T16:36:30.012Z,9.05
2022-11-21T16:39:07.640Z,8.66
2022-11-21T16:41:37.208Z,8.41
2022-11-21T16:44:04.421Z,8.40
2022-11-21T16:46:31.360Z,8.72
2022-11-21T16:49:03.504Z,8.74
2022-11-21T16:51:30.930Z,8.58
2022-11-21T16:54:00.617Z,8.81
2022-11-21T16:56:31.434Z,8.85
2022-11-21T16:58:58.231Z,8.77
2022-11-21T17:01:26.982Z,8.43
2022-11-21T17:03:54.406Z,8.61
2022-11-21T17:06:24.614Z,8.45
2022-11-21T17:08:51.350Z,8.65
2022-11-21T17:11:23.620Z,8.27
2022-11-21T17:13:51.442Z,8.89
2022-11-21T17:16:20.914Z,9.05
2022-11-21T17:18:48.161Z,8.68
2022-11-21T17:21:16.237Z,8.65
2022-11-21T17:23:45.895Z,8.67
2022-11-21T17:26:14.959Z,8.75
2022-11-21T17:28:45.695Z,8.67
2022-11-21T17:31:15.480Z,8.79
2022-11-21T17:33:43.450Z,8.47
2022-11-21T17:36:14.860Z,8.40
2022-11-21T17:38:43.128Z,8.43
2022-11-21T17:41:13.152Z,8.17
2022-11-21T17:43:40.419Z,8.30
2022-11-21T17:46:10.527Z,8.31
2022-11-21T17:48:38.534Z,8.69
2022-11-21T17:51:09.412Z,8.84
2022-11-21T17:53:38.519Z,8.67
2022-11-21T17:56:06.815Z,8.48
2022-11-21T17:58:34.202Z,8.57
2022-11-21T18:03:53.124Z,8.35
2022-11-21T18:06:20.064Z,8.16
2022-11-21T18:08:48.459Z,8.52
2022-11-21T18:11:21.129Z,8.53
2022-11-21T18:13:49.916Z,8.64
2022-11-21T18:16:19.898Z,8.46
2022-11-21T18:18:47.158Z,8.31
2022-11-21T18:21:17.473Z,8.48
2022-11-21T18:23:45.253Z,8.55
2022-11-21T18:26:15.089Z,8.64
2022-11-21T18:28:42.465Z,8.60
2022-11-21T18:31:15.153Z,8.46
2022-11-21T18:33:43.173Z,8.37
2022-11-21T18:36:12.123Z,8.72
2022-11-21T18:38:48.700Z,8.54
2022-11-21T18:41:20.877Z,8.66
2022-11-21T18:43:55.994Z,8.94
2022-11-21T18:46:24.555Z,8.67
2022-11-21T18:49:04.148Z,8.64
2022-11-21T18:51:33.258Z,8.30
2022-11-21T18:54:04.299Z,8.52
2022-11-21T18:56:32.282Z,8.93
2022-11-21T18:58:59.521Z,8.91
2022-11-21T19:01:29.214Z,9.18
2022-11-21T19:03:57.491Z,8.83
2022-11-21T19:06:26.000Z,9.02
2022-11-21T19:08:54.865Z,9.39
2022-11-21T19:11:26.944Z,9.27
2022-11-21T19:13:55.085Z,8.72
2022-11-21T19:16:24.852Z,8.80
2022-11-21T19:21:42.250Z,8.69
2022-11-21T19:24:13.843Z,8.48
2022-11-21T19:26:41.482Z,8.32
2022-11-21T19:29:08.475Z,8.03
2022-11-21T19:31:40.695Z,8.59
2022-11-21T19:34:09.813Z,8.46
2022-11-21T19:36:36.700Z,8.30
2022-11-21T19:39:03.493Z,8.71
2022-11-21T19:41:30.900Z,8.68
2022-11-21T19:43:59.800Z,8.77
2022-11-21T19:46:27.842Z,8.69
2022-11-21T19:48:55.965Z,8.89
2022-11-21T19:51:28.168Z,8.69
2022-11-21T19:53:55.359Z,8.79
2022-11-21T19:56:24.045Z,8.70
2022-11-21T19:58:52.338Z,8.51
2022-11-21T20:01:27.451Z,8.56
2022-11-21T20:03:56.347Z,8.97
2022-11-21T20:06:26.009Z,8.79
2022-11-21T20:08:55.189Z,8.41
2022-11-21T20:11:23.379Z,8.47
2022-11-21T20:13:50.978Z,8.29
2022-11-21T20:16:18.534Z,8.17
2022-11-21T20:18:45.503Z,8.06
2022-11-21T20:21:13.357Z,8.24
2022-11-21T20:23:40.923Z,8.52
2022-11-21T20:26:08.971Z,8.66
2022-11-21T20:28:37.232Z,8.27
2022-11-21T20:31:09.652Z,8.69
2022-11-21T20:33:38.590Z,8.31
2022-11-21T20:36:11.063Z,8.28
2022-11-21T20:38:38.060Z,7.96
2022-11-21T20:41:05.225Z,8.38
2022-11-21T20:44:02.801Z,8.46
2022-11-21T20:46:20.740Z,8.38
2022-11-21T20:48:48.265Z,8.46
2022-11-21T20:54:03.869Z,8.61
2022-11-21T20:56:35.195Z,8.29
2022-11-21T20:59:03.643Z,8.15
2022-11-21T21:01:31.120Z,8.30
2022-11-21T21:03:58.169Z,8.45
2022-11-21T21:06:25.112Z,8.79
2022-11-21T21:08:52.927Z,9.04
2022-11-21T21:11:51.600Z,9.17
2022-11-21T21:14:09.335Z,9.47
2022-11-21T21:16:36.369Z,9.41
2022-11-21T21:19:03.463Z,9.52
2022-11-21T21:21:33.285Z,8.74
2022-11-21T21:24:03.050Z,9.16
2022-11-21T21:26:41.919Z,8.95
2022-11-21T21:29:10.907Z,8.88
2022-11-21T21:31:37.736Z,8.62
2022-11-21T21:34:04.406Z,8.53
2022-11-21T21:36:32.213Z,8.50
2022-11-21T21:39:00.341Z,8.93
2022-11-21T21:41:29.033Z,8.92
2022-11-21T21:43:57.530Z,8.96
2022-11-21T21:46:28.101Z,8.52
2022-11-21T21:48:57.412Z,9.00
2022-11-21T21:51:29.134Z,9.23
2022-11-21T21:53:57.309Z,8.55
2022-11-21T21:56:25.756Z,8.62
2022-11-21T21:58:53.188Z,8.66
2022-11-21T22:01:25.611Z,9.08
2022-11-21T22:03:54.224Z,9.00
2022-11-21T22:06:21.104Z,9.04
2022-11-21T22:08:49.048Z,9.44
2022-11-21T22:11:18.986Z,9.33
2022-11-21T22:13:47.848Z,9.01
2022-11-21T22:16:15.190Z,9.27
2022-11-21T22:18:42.294Z,8.99
2022-11-21T22:21:23.722Z,9.35
2022-11-21T22:24:17.824Z,9.12
2022-11-21T22:26:38.732Z,9.25
2022-11-21T22:29:06.099Z,8.91
2022-11-21T22:31:33.193Z,8.99
2022-11-21T22:34:00.719Z,9.07
2022-11-21T22:36:27.578Z,9.23
2022-11-21T22:38:55.641Z,9.50
2022-11-21T22:41:25.151Z,9.43
2022-11-21T22:43:59.478Z,9.53
2022-11-21T22:46:28.129Z,9.30
2022-11-21T22:48:55.257Z,9.46
2022-11-21T22:51:25.254Z,9.49
2022-11-21T22:53:52.368Z,9.47
2022-11-21T22:56:21.560Z,9.32
2022-11-21T22:58:49.030Z,9.28
2022-11-21T23:01:21.070Z,9.37
2022-11-21T23:03:49.290Z,9.39
2022-11-21T23:06:17.254Z,9.29
2022-11-21T23:08:44.563Z,9.19
2022-11-21T23:11:21.594Z,9.38
2022-11-21T23:13:49.196Z,9.07
2022-11-21T23:16:16.803Z,9.07
2022-11-21T23:18:44.114Z,8.93
2022-11-21T23:21:12.306Z,9.07
2022-11-21T23:23:39.348Z,9.09
2022-11-21T23:26:06.830Z,8.97
2022-11-21T23:28:34.055Z,8.81
2022-11-21T23:31:00.788Z,8.87
2022-11-21T23:33:27.647Z,9.13
2022-11-21T23:35:54.457Z,9.37
2022-11-21T23:38:22.054Z,9.37
2022-11-21T23:40:49.739Z,9.16
2022-11-21T23:43:17.576Z,9.32
2022-11-21T23:45:45.426Z,8.96
2022-11-21T23:48:12.240Z,8.98
2022-11-21T23:50:39.191Z,9.25
2022-11-21T23:53:05.873Z,9.02
2022-11-21T23:55:32.701Z,9.33
2022-11-21T23:57:59.635Z,9.49
